createdAt,value
2023-02-01T00:01:32.835Z,2.90
2023-02-01T00:04:00.909Z,2.90
2023-02-01T00:06:28.994Z,2.90
2023-02-01T00:08:57.715Z,2.90
2023-02-01T00:11:31.638Z,2.90
2023-02-01T00:13:59.956Z,2.90
2023-02-01T00:16:29.889Z,2.90
2023-02-01T00:19:00.911Z,2.90
2023-02-01T00:21:29.716Z,2.90
2023-02-01T00:23:57.912Z,2.90
2023-02-01T00:26:33.239Z,2.90
2023-02-01T00:29:01.603Z,2.90
2023-02-01T00:31:33.446Z,2.90
2023-02-01T00:34:01.514Z,2.90
2023-02-01T00:36:30.252Z,2.90
2023-02-01T00:38:58.232Z,2.90
2023-02-01T00:41:27.565Z,2.90
2023-02-01T00:43:56.847Z,2.90
2023-02-01T00:46:25.049Z,2.90
2023-02-01T00:48:53.195Z,2.90
2023-02-01T00:51:23.944Z,2.90
2023-02-01T00:53:52.655Z,2.90
2023-02-01T00:56:20.865Z,2.90
2023-02-01T00:58:50.843Z,2.90
2023-02-01T01:01:22.552Z,2.90
2023-02-01T01:03:52.526Z,3.00
2023-02-01T01:06:23.829Z,3.00
2023-02-01T01:08:53.928Z,3.00
2023-02-01T01:11:24.640Z,2.90
2023-02-01T01:13:54.277Z,2.90
2023-02-01T01:16:25.024Z,2.90
2023-02-01T01:18:56.401Z,2.90
2023-02-01T01:21:25.054Z,2.90
2023-02-01T01:23:53.262Z,2.90
2023-02-01T01:26:23.487Z,2.90
2023-02-01T01:28:52.248Z,2.90
2023-02-01T01:31:22.258Z,2.90
2023-02-01T01:33:54.650Z,2.90
2023-02-01T01:36:23.435Z,2.80
2023-02-01T01:38:52.060Z,2.80
2023-02-01T01:41:22.773Z,2.80
2023-02-01T01:43:56.970Z,2.80
2023-02-01T01:46:29.429Z,2.70
2023-02-01T01:49:07.296Z,2.70
2023-02-01T01:51:39.708Z,2.70
2023-02-01T01:54:14.259Z,2.70
2023-02-01T01:56:43.028Z,2.70
2023-02-01T01:59:11.658Z,2.70
2023-02-01T02:01:39.684Z,2.70
2023-02-01T02:04:09.190Z,2.70
2023-02-01T02:06:46.330Z,2.70
2023-02-01T02:09:14.624Z,2.70
2023-02-01T02:11:42.824Z,2.70
2023-02-01T02:14:14.775Z,2.70
2023-02-01T02:17:03.678Z,2.70
2023-02-01T02:20:10.487Z,2.70
2023-02-01T02:23:07.555Z,2.70
2023-02-01T02:25:50.699Z,2.70
2023-02-01T02:29:01.662Z,2.70
2023-02-01T02:31:53.660Z,2.70
2023-02-01T02:34:28.244Z,2.70
2023-02-01T02:37:06.052Z,2.70
2023-02-01T02:39:46.978Z,2.70
2023-02-01T02:42:40.551Z,2.70
2023-02-01T02:45:43.082Z,2.70
2023-02-01T02:48:18.089Z,2.70
2023-02-01T02:51:10.583Z,2.70
2023-02-01T02:54:05.411Z,2.70
2023-02-01T02:56:51.463Z,2.80
2023-02-01T02:59:41.146Z,2.70
2023-02-01T03:02:27.874Z,2.70
2023-02-01T03:04:57.635Z,2.70
2023-02-01T03:07:57.099Z,2.70
2023-02-01T03:10:32.157Z,2.70
2023-02-01T03:13:06.689Z,2.70
2023-02-01T03:15:40.187Z,2.70
2023-02-01T03:18:17.153Z,2.70
2023-02-01T03:20:48.704Z,2.80
2023-02-01T03:23:22.003Z,2.80
2023-02-01T03:25:51.962Z,2.80
2023-02-01T03:28:22.437Z,2.80
2023-02-01T03:30:51.646Z,2.90
2023-02-01T03:33:23.535Z,2.80
2023-02-01T03:36:00.848Z,2.80
2023-02-01T03:38:34.569Z,2.80
2023-02-01T03:41:12.976Z,2.80
2023-02-01T03:43:49.956Z,2.80
2023-02-01T03:46:25.857Z,2.80
2023-02-01T03:48:56.027Z,2.80
2023-02-01T03:51:26.264Z,2.80
2023-02-01T03:53:57.076Z,2.80
2023-02-01T03:56:26.884Z,2.80
2023-02-01T03:59:00.747Z,2.80
2023-02-01T04:01:34.253Z,2.80
2023-02-01T04:04:02.895Z,2.80
2023-02-01T04:06:31.248Z,2.80
2023-02-01T04:09:04.707Z,2.80
2023-02-01T04:11:32.649Z,2.80
2023-02-01T04:14:05.142Z,2.80
2023-02-01T04:16:33.386Z,2.80
2023-02-01T04:19:01.432Z,2.80
2023-02-01T04:21:29.830Z,2.80
2023-02-01T04:23:57.728Z,2.80
2023-02-01T04:26:27.186Z,2.80
2023-02-01T04:28:55.187Z,2.80
2023-02-01T04:31:26.538Z,2.80
2023-02-01T04:33:54.940Z,2.80
2023-02-01T04:36:25.896Z,2.80
2023-02-01T04:38:54.554Z,2.80
2023-02-01T04:41:23.780Z,2.70
2023-02-01T04:43:53.997Z,2.70
2023-02-01T04:46:22.426Z,2.70
2023-02-01T04:48:50.408Z,2.70
2023-02-01T04:51:19.033Z,2.60
2023-02-01T04:53:47.258Z,2.50
2023-02-01T04:56:15.163Z,2.60
2023-02-01T04:58:43.038Z,2.50
2023-02-01T05:01:12.306Z,2.50
2023-02-01T05:03:40.215Z,2.40
2023-02-01T05:06:08.199Z,2.40
2023-02-01T05:08:38.686Z,2.40
2023-02-01T05:11:07.113Z,2.30
2023-02-01T05:13:49.066Z,2.30
2023-02-01T05:16:18.731Z,2.30
2023-02-01T05:18:48.632Z,2.30
2023-02-01T05:21:16.580Z,2.30
2023-02-01T05:24:01.959Z,2.30
2023-02-01T05:26:29.917Z,2.40
2023-02-01T05:28:58.624Z,2.30
2023-02-01T05:31:28.055Z,2.40
2023-02-01T05:33:56.124Z,2.40
2023-02-01T05:36:24.169Z,2.30
2023-02-01T05:38:52.032Z,2.30
2023-02-01T05:41:20.050Z,2.30
2023-02-01T05:43:47.923Z,2.30
2023-02-01T05:46:15.876Z,2.30
2023-02-01T05:48:45.505Z,2.30
2023-02-01T05:51:14.156Z,2.30
2023-02-01T05:53:42.047Z,2.30
2023-02-01T05:56:09.947Z,2.40
2023-02-01T05:58:41.479Z,2.40
2023-02-01T06:01:10.459Z,2.40
2023-02-01T06:03:41.953Z,2.40
2023-02-01T06:06:13.385Z,2.40
2023-02-01T06:08:41.879Z,2.40
2023-02-01T06:11:10.991Z,2.40
2023-02-01T06:13:41.349Z,2.40
2023-02-01T06:16:09.377Z,2.40
2023-02-01T06:18:38.770Z,2.50
2023-02-01T06:21:07.020Z,2.50
2023-02-01T06:23:36.449Z,2.50
2023-02-01T06:26:05.860Z,2.50
2023-02-01T06:28:34.607Z,2.50
2023-02-01T06:31:07.394Z,2.50
2023-02-01T06:33:35.754Z,2.50
2023-02-01T06:36:06.441Z,2.50
2023-02-01T06:38:36.920Z,2.50
2023-02-01T06:41:05.684Z,2.50
2023-02-01T06:43:34.546Z,2.50
2023-02-01T06:46:03.995Z,2.50
2023-02-01T06:48:32.152Z,2.50
2023-02-01T06:51:00.108Z,2.50
2023-02-01T06:53:28.327Z,2.60
2023-02-01T06:55:59.755Z,2.60
2023-02-01T06:58:30.664Z,2.60
2023-02-01T07:00:58.937Z,2.60
2023-02-01T07:03:26.844Z,2.60
2023-02-01T07:05:57.829Z,2.60
2023-02-01T07:08:25.860Z,2.60
2023-02-01T07:10:54.144Z,2.70
2023-02-01T07:13:23.506Z,2.60
2023-02-01T07:15:51.438Z,2.70
2023-02-01T07:18:19.393Z,2.70
2023-02-01T07:20:52.347Z,2.70
2023-02-01T07:23:21.119Z,2.70
2023-02-01T07:25:49.180Z,2.70
2023-02-01T07:28:17.084Z,2.80
2023-02-01T07:30:51.733Z,2.70
2023-02-01T07:33:22.146Z,2.70
2023-02-01T07:35:50.986Z,2.70
2023-02-01T07:38:19.232Z,2.70
2023-02-01T07:40:47.143Z,2.70
2023-02-01T07:43:15.031Z,2.70
2023-02-01T07:45:43.007Z,2.70
2023-02-01T07:48:12.234Z,2.80
2023-02-01T07:50:40.217Z,2.80
2023-02-01T07:53:08.121Z,2.80
2023-02-01T07:55:37.625Z,2.90
2023-02-01T07:58:05.583Z,2.90
2023-02-01T08:00:52.630Z,2.90
2023-02-01T08:03:21.910Z,2.90
2023-02-01T08:05:49.861Z,3.00
2023-02-01T08:08:17.711Z,3.00
2023-02-01T08:10:45.613Z,3.00
2023-02-01T08:13:13.503Z,3.00
2023-02-01T08:15:41.645Z,3.10
2023-02-01T08:18:10.838Z,3.10
2023-02-01T08:20:42.402Z,3.10
2023-02-01T08:23:10.692Z,3.00
2023-02-01T08:25:39.415Z,3.10
2023-02-01T08:28:08.435Z,3.00
2023-02-01T08:30:37.935Z,3.00
2023-02-01T08:33:06.890Z,3.00
2023-02-01T08:35:43.200Z,3.00
2023-02-01T08:38:13.467Z,2.90
2023-02-01T08:40:42.407Z,2.90
2023-02-01T08:43:10.286Z,2.90
2023-02-01T08:45:38.727Z,2.90
2023-02-01T08:48:07.247Z,2.80
2023-02-01T08:50:35.254Z,2.80
2023-02-01T08:53:03.147Z,2.80
2023-02-01T08:55:32.393Z,2.70
2023-02-01T08:58:00.372Z,2.70
2023-02-01T09:00:28.280Z,2.70
2023-02-01T09:02:57.086Z,2.60
2023-02-01T09:05:29.543Z,2.60
2023-02-01T09:08:03.152Z,2.60
2023-02-01T09:10:35.520Z,2.60
2023-02-01T09:13:04.081Z,2.60
2023-02-01T09:15:33.327Z,2.60
2023-02-01T09:18:01.489Z,2.60
2023-02-01T09:20:29.596Z,2.60
2023-02-01T09:22:58.736Z,2.60
2023-02-01T09:25:26.763Z,2.70
2023-02-01T09:27:56.059Z,2.60
2023-02-01T09:30:24.430Z,2.70
2023-02-01T09:32:52.476Z,2.80
2023-02-01T09:35:20.391Z,2.80
2023-02-01T09:37:48.292Z,2.80
2023-02-01T09:40:17.708Z,2.80
2023-02-01T09:43:09.010Z,2.90
2023-02-01T09:45:47.277Z,2.90
2023-02-01T09:48:18.496Z,2.90
2023-02-01T09:50:50.732Z,2.90
2023-02-01T09:53:26.998Z,2.80
2023-02-01T09:55:58.926Z,2.80
2023-02-01T09:58:34.678Z,2.80
2023-02-01T10:01:04.918Z,2.80
2023-02-01T10:03:36.213Z,2.80
2023-02-01T10:06:22.419Z,2.80
2023-02-01T10:09:06.322Z,2.90
2023-02-01T10:11:50.015Z,2.90
2023-02-01T10:14:43.667Z,3.00
2023-02-01T10:17:26.073Z,3.10
2023-02-01T10:20:05.260Z,3.10
2023-02-01T10:23:08.752Z,3.10
2023-02-01T10:25:38.826Z,3.20
2023-02-01T10:28:06.746Z,3.20
2023-02-01T10:30:43.994Z,3.20
2023-02-01T10:33:19.231Z,3.20
2023-02-01T10:35:48.383Z,3.20
2023-02-01T10:38:28.091Z,3.30
2023-02-01T10:41:01.081Z,3.30
2023-02-01T10:43:29.283Z,3.40
2023-02-01T10:45:59.133Z,3.40
2023-02-01T10:48:28.411Z,3.50
2023-02-01T10:51:00.861Z,3.50
2023-02-01T10:53:36.676Z,3.50
2023-02-01T10:56:09.740Z,3.60
2023-02-01T10:58:44.940Z,3.50
2023-02-01T11:01:19.811Z,3.50
2023-02-01T11:03:55.422Z,3.50
2023-02-01T11:06:31.306Z,3.50
2023-02-01T11:09:01.490Z,3.50
2023-02-01T11:11:30.143Z,3.50
2023-02-01T11:14:00.999Z,3.60
2023-02-01T11:16:37.312Z,3.60
2023-02-01T11:19:06.188Z,3.60
2023-02-01T11:21:35.062Z,3.70
2023-02-01T11:24:04.798Z,3.70
2023-02-01T11:26:34.035Z,3.60
2023-02-01T11:29:05.082Z,3.60
2023-02-01T11:31:36.881Z,3.60
2023-02-01T11:34:10.028Z,3.60
2023-02-01T11:36:40.799Z,3.60
2023-02-01T11:39:23.069Z,3.70
2023-02-01T11:42:05.882Z,3.70
2023-02-01T11:44:37.127Z,3.70
2023-02-01T11:47:27.602Z,3.60
2023-02-01T11:49:57.002Z,3.70
2023-02-01T11:52:43.689Z,3.70
2023-02-01T11:55:40.054Z,3.70
2023-02-01T11:58:19.459Z,3.80
2023-02-01T12:01:03.060Z,3.90
2023-02-01T12:04:09.113Z,3.90
2023-02-01T12:06:49.491Z,4.10
2023-02-01T12:09:32.685Z,4.10
2023-02-01T12:12:09.970Z,4.10
2023-02-01T12:14:58.613Z,4.10
2023-02-01T12:18:10.659Z,4.10
2023-02-01T12:21:08.602Z,4.20
2023-02-01T12:23:52.823Z,4.20
2023-02-01T12:26:42.805Z,4.30
2023-02-01T12:29:28.685Z,4.40
2023-02-01T12:32:16.071Z,4.40
2023-02-01T12:35:07.540Z,4.30
2023-02-01T12:37:56.724Z,4.30
2023-02-01T12:40:39.649Z,4.20
2023-02-01T12:43:16.311Z,4.30
2023-02-01T12:45:48.442Z,4.30
2023-02-01T12:48:27.755Z,4.20
2023-02-01T12:51:00.158Z,4.20
2023-02-01T12:53:37.501Z,4.10
2023-02-01T12:56:10.952Z,4.10
2023-02-01T12:58:44.673Z,4.10
2023-02-01T13:01:17.948Z,4.00
2023-02-01T13:03:56.007Z,4.00
2023-02-01T13:06:28.348Z,4.00
2023-02-01T13:09:02.667Z,4.10
2023-02-01T13:11:34.996Z,4.10
2023-02-01T13:14:07.614Z,4.10
2023-02-01T13:16:40.683Z,4.20
2023-02-01T13:19:16.518Z,4.20
2023-02-01T13:21:49.734Z,4.20
2023-02-01T13:24:29.906Z,4.10
2023-02-01T13:26:58.293Z,4.10
2023-02-01T13:29:27.807Z,4.10
2023-02-01T13:33:51.264Z,4.10
2023-02-01T13:35:53.258Z,4.10
2023-02-01T13:38:55.881Z,4.10
2023-02-01T13:41:31.528Z,4.10
2023-02-01T13:44:03.215Z,4.10
2023-02-01T13:46:32.534Z,4.10
2023-02-01T13:49:03.678Z,4.00
2023-02-01T13:51:42.910Z,4.00
2023-02-01T13:54:31.001Z,3.90
2023-02-01T13:57:01.159Z,3.90
2023-02-01T13:59:51.150Z,3.80
2023-02-01T14:02:38.906Z,3.80
2023-02-01T14:05:09.820Z,3.80
2023-02-01T14:07:37.953Z,3.80
2023-02-01T14:10:48.660Z,3.80
2023-02-01T14:13:28.391Z,3.80
2023-02-01T14:16:17.271Z,3.70
2023-02-01T14:19:10.168Z,3.70
2023-02-01T14:21:49.789Z,3.60
2023-02-01T14:24:25.914Z,3.60
2023-02-01T14:26:55.868Z,3.60
2023-02-01T14:29:32.053Z,3.60
2023-02-01T14:32:07.524Z,3.50
2023-02-01T14:34:44.109Z,3.50
2023-02-01T14:37:25.281Z,3.50
2023-02-01T14:39:58.394Z,3.50
2023-02-01T14:42:33.101Z,3.50
2023-02-01T14:45:34.629Z,3.50
2023-02-01T14:48:36.142Z,3.50
2023-02-01T14:51:08.437Z,3.50
2023-02-01T14:53:37.612Z,3.50
2023-02-01T14:56:11.527Z,3.50
2023-02-01T14:58:44.547Z,3.50
2023-02-01T15:01:23.663Z,3.50
2023-02-01T15:03:59.838Z,3.50
2023-02-01T15:06:38.106Z,3.50
2023-02-01T15:09:11.497Z,3.60
2023-02-01T15:11:58.728Z,3.50
2023-02-01T15:14:27.645Z,3.50
2023-02-01T15:16:56.050Z,3.40
2023-02-01T15:19:26.420Z,3.40
2023-02-01T15:21:57.353Z,3.40
2023-02-01T15:24:27.372Z,3.40
2023-02-01T15:26:57.064Z,3.40
2023-02-01T15:29:28.729Z,3.40
2023-02-01T15:31:56.820Z,3.40
2023-02-01T15:34:24.734Z,3.40
2023-02-01T15:37:08.139Z,3.40
2023-02-01T15:39:38.326Z,3.40
2023-02-01T15:42:16.476Z,3.40
2023-02-01T15:44:46.963Z,3.40
2023-02-01T15:47:18.132Z,3.40
2023-02-01T15:49:48.942Z,3.30
2023-02-01T15:52:26.771Z,3.40
2023-02-01T15:54:58.314Z,3.30
2023-02-01T15:57:31.705Z,3.30
2023-02-01T16:00:02.262Z,3.30
2023-02-01T16:02:45.334Z,3.30
2023-02-01T16:05:34.132Z,3.30
2023-02-01T16:08:05.511Z,3.30
2023-02-01T16:10:41.859Z,3.30
2023-02-01T16:13:10.003Z,3.30
2023-02-01T16:15:37.997Z,3.30
2023-02-01T16:18:07.917Z,3.30
2023-02-01T16:20:36.315Z,3.30
2023-02-01T16:23:05.360Z,3.30
2023-02-01T16:25:34.656Z,3.30
2023-02-01T16:28:02.863Z,3.30
2023-02-01T16:30:30.988Z,3.30
2023-02-01T16:33:00.761Z,3.30
2023-02-01T16:35:32.354Z,3.30
2023-02-01T16:38:00.816Z,3.30
2023-02-01T16:40:28.725Z,3.20
2023-02-01T16:42:57.977Z,3.20
2023-02-01T16:45:26.232Z,3.10
2023-02-01T16:47:56.540Z,3.10
2023-02-01T16:50:28.657Z,3.10
2023-02-01T16:52:56.584Z,3.20
2023-02-01T16:55:24.878Z,3.20
2023-02-01T16:57:53.169Z,3.20
2023-02-01T17:00:25.108Z,3.20
2023-02-01T17:02:54.156Z,3.30
2023-02-01T17:05:23.099Z,3.20
2023-02-01T17:07:51.504Z,3.20
2023-02-01T17:10:33.952Z,3.10
2023-02-01T17:13:02.500Z,3.10
2023-02-01T17:15:37.234Z,3.10
2023-02-01T17:18:05.525Z,3.10
2023-02-01T17:20:36.388Z,3.00
2023-02-01T17:23:05.207Z,3.00
2023-02-01T17:25:33.094Z,3.00
2023-02-01T17:28:01.560Z,3.00
2023-02-01T17:30:31.957Z,3.10
2023-02-01T17:33:02.117Z,3.10
2023-02-01T17:35:33.821Z,3.10
2023-02-01T17:38:02.001Z,3.10
2023-02-01T17:40:30.091Z,3.10
2023-02-01T17:42:58.168Z,3.10
2023-02-01T17:45:37.618Z,3.20
2023-02-01T17:48:06.647Z,3.10
2023-02-01T17:50:37.904Z,3.10
2023-02-01T17:53:09.582Z,3.10
2023-02-01T17:55:40.789Z,3.00
2023-02-01T17:58:15.151Z,3.00
2023-02-01T18:00:45.668Z,2.90
2023-02-01T18:03:23.573Z,2.70
2023-02-01T18:05:53.609Z,2.40
2023-02-01T18:08:22.930Z,2.30
2023-02-01T18:10:52.401Z,2.10
2023-02-01T18:13:22.093Z,2.00
2023-02-01T18:15:51.312Z,1.90
2023-02-01T18:18:19.253Z,1.90
2023-02-01T18:20:48.306Z,1.80
2023-02-01T18:23:18.620Z,1.80
2023-02-01T18:25:47.291Z,1.80
2023-02-01T18:28:16.523Z,1.70
2023-02-01T18:30:46.568Z,1.70
2023-02-01T18:33:17.741Z,1.70
2023-02-01T18:35:45.875Z,1.60
2023-02-01T18:38:14.207Z,1.60
2023-02-01T18:40:48.739Z,1.60
2023-02-01T18:43:16.920Z,1.60
2023-02-01T18:45:46.290Z,1.60
2023-02-01T18:48:17.052Z,1.60
2023-02-01T18:50:46.723Z,1.60
2023-02-01T18:53:16.633Z,1.60
2023-02-01T18:55:44.532Z,1.60
2023-02-01T18:58:15.955Z,1.60
2023-02-01T19:00:45.018Z,1.50
2023-02-01T19:03:15.165Z,1.60
2023-02-01T19:05:49.451Z,1.60
2023-02-01T19:08:17.353Z,1.60
2023-02-01T19:10:45.565Z,1.60
2023-02-01T19:13:14.273Z,1.60
2023-02-01T19:15:42.513Z,1.60
2023-02-01T19:18:11.108Z,1.60
2023-02-01T19:20:45.446Z,1.70
2023-02-01T19:23:13.897Z,1.60
2023-02-01T19:25:45.455Z,1.60
2023-02-01T19:28:13.793Z,1.70
2023-02-01T19:30:41.805Z,1.60
2023-02-01T19:33:09.864Z,1.70
2023-02-01T19:35:37.841Z,1.70
2023-02-01T19:38:07.230Z,1.70
2023-02-01T19:40:35.248Z,1.70
2023-02-01T19:43:03.248Z,1.70
2023-02-01T19:45:31.169Z,1.70
2023-02-01T19:47:59.571Z,1.70
2023-02-01T19:50:27.549Z,1.70
2023-02-01T19:52:55.547Z,1.70
2023-02-01T19:55:25.316Z,1.70
2023-02-01T19:57:53.618Z,1.70
2023-02-01T20:00:21.753Z,1.70
2023-02-01T20:02:50.061Z,1.70
2023-02-01T20:05:19.069Z,1.70
2023-02-01T20:07:46.999Z,1.70
2023-02-01T20:10:14.961Z,1.70
2023-02-01T20:12:47.220Z,1.70
2023-02-01T20:15:15.277Z,1.80
2023-02-01T20:17:43.447Z,1.70
2023-02-01T20:20:12.358Z,1.70
2023-02-01T20:22:40.320Z,1.70
2023-02-01T20:25:11.045Z,1.70
2023-02-01T20:27:39.857Z,1.70
2023-02-01T20:30:10.859Z,1.80
2023-02-01T20:32:38.796Z,1.70
2023-02-01T20:35:07.615Z,1.80
2023-02-01T20:37:37.687Z,1.80
2023-02-01T20:40:06.542Z,1.80
2023-02-01T20:42:35.888Z,1.90
2023-02-01T20:45:03.990Z,1.90
2023-02-01T20:47:33.278Z,1.90
2023-02-01T20:50:01.168Z,1.90
2023-02-01T20:52:29.139Z,1.90
2023-02-01T20:54:57.093Z,1.90
2023-02-01T20:57:26.276Z,1.90
2023-02-01T20:59:54.230Z,1.90
2023-02-01T21:02:22.298Z,1.90
2023-02-01T21:05:19.216Z,1.90
2023-02-01T21:07:47.636Z,1.90
2023-02-01T21:10:15.536Z,2.00
2023-02-01T21:12:43.563Z,1.90
2023-02-01T21:15:12.074Z,2.00
2023-02-01T21:17:40.857Z,2.00
2023-02-01T21:20:09.807Z,2.00
2023-02-01T21:22:39.204Z,2.00
2023-02-01T21:25:08.071Z,1.90
2023-02-01T21:27:36.188Z,1.80
2023-02-01T21:30:05.937Z,1.90
2023-02-01T21:32:35.242Z,1.90
2023-02-01T21:35:03.741Z,1.90
2023-02-01T21:37:32.068Z,1.90
2023-02-01T21:40:01.634Z,1.90
2023-02-01T21:42:30.907Z,1.90
2023-02-01T21:45:09.721Z,1.90
2023-02-01T21:47:38.592Z,1.80
2023-02-01T21:50:11.598Z,1.80
2023-02-01T21:52:40.526Z,1.80
2023-02-01T21:55:10.800Z,1.90
2023-02-01T21:57:40.080Z,1.90
2023-02-01T22:00:10.514Z,1.80
2023-02-01T22:02:38.581Z,1.80
2023-02-01T22:05:07.474Z,1.80
2023-02-01T22:07:36.634Z,1.80
2023-02-01T22:10:06.433Z,1.80
2023-02-01T22:12:35.686Z,1.80
2023-02-01T22:15:04.601Z,1.80
2023-02-01T22:17:32.475Z,1.70
2023-02-01T22:20:00.399Z,1.70
2023-02-01T22:22:28.449Z,1.80
2023-02-01T22:24:56.337Z,1.80
2023-02-01T22:28:30.883Z,1.80
2023-02-01T22:30:15.171Z,1.80
2023-02-01T22:32:43.090Z,1.70
2023-02-01T22:35:11.396Z,1.70
2023-02-01T22:37:39.355Z,1.70
2023-02-01T22:40:08.361Z,1.80
2023-02-01T22:42:36.257Z,1.80
2023-02-01T22:45:04.685Z,1.70
2023-02-01T22:47:33.898Z,1.70
2023-02-01T22:50:02.177Z,1.80
2023-02-01T22:52:30.736Z,1.80
2023-02-01T22:54:59.714Z,1.80
2023-02-01T22:57:27.675Z,1.80
2023-02-01T22:59:55.570Z,1.90
2023-02-01T23:02:23.617Z,1.90
2023-02-01T23:04:52.988Z,1.90
2023-02-01T23:07:20.856Z,1.90
2023-02-01T23:09:48.771Z,2.00
2023-02-01T23:12:16.667Z,1.90
2023-02-01T23:14:59.047Z,2.00
2023-02-01T23:17:26.957Z,1.90
2023-02-01T23:19:56.246Z,1.90
2023-02-01T23:22:24.163Z,1.90
2023-02-01T23:24:52.223Z,1.90
2023-02-01T23:27:20.621Z,1.90
2023-02-01T23:29:48.688Z,1.90
2023-02-01T23:32:17.136Z,1.90
2023-02-01T23:34:45.079Z,1.90
2023-02-01T23:37:14.566Z,1.80
2023-02-01T23:39:42.460Z,1.80
2023-02-01T23:42:10.321Z,1.90
2023-02-01T23:44:38.259Z,1.80
2023-02-01T23:47:06.163Z,1.90
2023-02-01T23:49:34.104Z,1.90
2023-02-01T23:52:01.974Z,1.90
2023-02-01T23:54:31.298Z,1.90
2023-02-01T23:56:59.482Z,1.90
2023-02-01T23:59:27.689Z,1.90
